Time;durP1;ratioP1;P1;durP2;ratioP2;P2;SDS_P1;SDS_P2;PMS_P1;PMS_P2;Temp;Humidity;BMP_temperature;BMP_pressure;BME280_temperature;BME280_humidity;BME280_pressure;Samples;Min_cycle;Max_cycle;Signal;HPM_P1;HPM_P2
2022/04/17 00:01:02;;;;;;;5.17;3.60;;;13.40;99.50;;;;;;10259670;28;20250;-80
2022/04/17 00:06:06;;;;;;;3.77;2.70;;;13.60;98.20;;;;;;10264305;28;20269;-79
2022/04/17 00:11:09;;;;;;;3.60;2.90;;;13.80;97.80;;;;;;10290407;28;20245;-80
2022/04/17 00:16:12;;;;;;;13.87;7.50;;;13.80;97.40;;;;;;10272786;28;20257;-80
2022/04/17 00:21:15;;;;;;;5.03;3.40;;;13.10;85.90;;;;;;10258376;28;20242;-80
2022/04/17 00:26:19;;;;;;;5.10;3.43;;;13.20;98.80;;;;;;10272636;28;20715;-79
2022/04/17 00:31:21;;;;;;;11.37;6.60;;;13.60;97.60;;;;;;10232282;29;20210;-79
2022/04/17 00:36:23;;;;;;;10.33;6.20;;;13.30;88.80;;;;;;10278734;28;20703;-80
2022/04/17 00:41:26;;;;;;;16.83;9.03;;;12.20;93.80;;;;;;10267853;28;20238;-80
2022/04/17 00:46:28;;;;;;;11.57;6.53;;;11.80;92.10;;;;;;10275474;28;20312;-80
2022/04/17 00:51:31;;;;;;;16.37;8.63;;;12.10;94.20;;;;;;10265345;28;20249;-80
2022/04/17 00:56:34;;;;;;;4.20;3.40;;;12.80;89.60;;;;;;10249763;28;20278;-79
2022/04/17 01:01:38;;;;;;;6.20;3.70;;;12.60;99.90;;;;;;10271402;28;20822;-79
2022/04/17 01:06:41;;;;;;;16.20;8.03;;;12.70;98.80;;;;;;10265541;28;20277;-80
2022/04/17 01:11:44;;;;;;;8.10;4.57;;;12.10;72.00;;;;;;10273173;28;20233;-79
2022/04/17 01:16:47;;;;;;;5.83;3.60;;;12.50;99.00;;;;;;10270218;28;20296;-79
2022/04/17 01:21:49;;;;;;;4.57;4.03;;;12.90;99.80;;;;;;10253802;28;20616;-80
2022/04/17 01:26:57;;;;;;;4.60;3.80;;;13.50;98.50;;;;;;10287433;28;20272;-80
2022/04/17 01:32:00;;;;;;;5.43;3.50;;;13.70;96.40;;;;;;10251038;28;20242;-80
2022/04/17 01:37:04;;;;;;;4.80;3.60;;;13.90;96.50;;;;;;10262179;28;20311;-79
2022/04/17 01:42:06;;;;;;;4.40;3.50;;;14.20;95.80;;;;;;10241513;29;20238;-79
2022/04/17 01:47:09;;;;;;;5.67;4.00;;;14.20;95.30;;;;;;10286273;28;20241;-79
2022/04/17 01:52:12;;;;;;;4.13;3.53;;;13.90;95.80;;;;;;10261869;28;20299;-80
2022/04/17 01:57:15;;;;;;;4.77;3.13;;;;;;;;;;10277441;28;20261;-79
2022/04/17 02:02:17;;;;;;;4.63;3.53;;;14.20;94.80;;;;;;10294854;28;20695;-80
2022/04/17 02:07:20;;;;;;;5.03;4.30;;;14.00;95.40;;;;;;10293779;28;20285;-80
2022/04/17 02:12:22;;;;;;;4.37;3.30;;;14.10;94.60;;;;;;10293611;28;20579;-80
2022/04/17 02:17:25;;;;;;;5.23;3.37;;;14.20;94.30;;;;;;10277494;28;20264;-80
2022/04/17 02:22:27;;;;;;;6.93;3.60;;;14.30;94.20;;;;;;10260724;28;20684;-80
2022/04/17 02:27:30;;;;;;;5.00;3.37;;;14.40;94.00;;;;;;10276879;28;20241;-80
2022/04/17 02:32:32;;;;;;;3.80;3.37;;;14.40;93.00;;;;;;10293920;28;20238;-79
2022/04/17 02:37:38;;;;;;;4.27;3.40;;;14.20;93.00;;;;;;10294348;28;20700;-79
2022/04/17 02:42:40;;;;;;;4.47;3.63;;;14.00;94.80;;;;;;10274331;28;20287;-80
2022/04/17 02:47:43;;;;;;;4.63;3.20;;;14.10;94.50;;;;;;10293282;28;20323;-80
2022/04/17 02:52:46;;;;;;;6.43;3.63;;;14.20;94.30;;;;;;10293080;28;20316;-80
2022/04/17 02:57:49;;;;;;;3.60;3.30;;;14.00;94.40;;;;;;10291867;28;20229;-80
2022/04/17 03:08:15;;;;;;;4.47;3.50;;;14.00;94.50;;;;;;10291534;28;20658;-79
2022/04/17 03:13:18;;;;;;;3.50;2.77;;;14.00;94.40;;;;;;10275712;28;20327;-80
2022/04/17 03:18:20;;;;;;;5.17;3.90;;;13.80;94.20;;;;;;10288829;28;20670;-80
2022/04/17 03:23:23;;;;;;;4.60;3.70;;;13.10;94.40;;;;;;10237587;28;20246;-79
2022/04/17 03:28:26;;;;;;;4.93;3.30;;;13.00;95.90;;;;;;10274854;28;20228;-79
2022/04/17 03:33:29;;;;;;;3.90;3.50;;;13.00;97.20;;;;;;10292822;28;20682;-80
2022/04/17 03:38:32;;;;;;;3.60;3.20;;;13.20;96.80;;;;;;10271357;28;20741;-79
2022/04/17 03:43:34;;;;;;;4.63;3.20;;;13.10;97.10;;;;;;10273729;28;20206;-79
2022/04/17 03:48:37;;;;;;;3.97;2.93;;;13.00;97.20;;;;;;10273771;28;20671;-80
2022/04/17 03:53:40;;;;;;;5.00;3.40;;;13.10;97.60;;;;;;10288715;28;20257;-80
2022/04/17 03:58:42;;;;;;;4.37;2.77;;;13.10;97.50;;;;;;10289370;28;20805;-80
2022/04/17 04:03:46;;;;;;;3.67;3.00;;;13.40;97.00;;;;;;10289010;28;20249;-80
2022/04/17 04:08:51;;;;;;;4.57;3.23;;;13.70;96.10;;;;;;10289197;28;20257;-80
2022/04/17 04:13:54;;;;;;;4.00;2.90;;;13.70;95.40;;;;;;10290101;28;20307;-80
2022/04/17 04:18:57;;;;;;;3.77;3.30;;;13.70;95.60;;;;;;10249251;28;20614;-80
2022/04/17 04:23:59;;;;;;;4.53;3.30;;;13.60;95.60;;;;;;10249191;28;20695;-80
2022/04/17 04:29:02;;;;;;;4.90;3.73;;;14.00;94.70;;;;;;10279247;28;20649;-80
2022/04/17 04:34:04;;;;;;;3.30;3.00;;;14.00;94.50;;;;;;10256156;28;20785;-80
2022/04/17 04:39:06;;;;;;;4.63;3.03;;;14.20;94.10;;;;;;10270542;28;20249;-80
2022/04/17 04:44:09;;;;;;;4.50;3.13;;;14.30;93.50;;;;;;10288923;28;20242;-80
2022/04/17 04:49:29;;;;;;;3.63;3.33;;;14.40;93.40;;;;;;10267988;28;20313;-80
2022/04/17 04:54:32;;;;;;;5.07;3.70;;;14.50;93.10;;;;;;10270388;28;20712;-79
2022/04/17 04:59:35;;;;;;;3.70;3.27;;;14.80;92.30;;;;;;10285890;28;20213;-79
2022/04/17 05:04:37;;;;;;;3.40;2.80;;;15.00;91.60;;;;;;10272190;28;20237;-79
2022/04/17 05:09:40;;;;;;;4.30;3.03;;;15.00;91.30;;;;;;10326627;28;20268;-80
2022/04/17 05:14:44;;;;;;;2.93;2.70;;;15.20;90.90;;;;;;10308494;28;20682;-79
2022/04/17 05:19:46;;;;;;;2.90;2.60;;;15.30;90.60;;;;;;10325067;28;20307;-80
2022/04/17 05:24:49;;;;;;;8.07;3.37;;;15.40;90.10;;;;;;10327569;28;20610;-80
2022/04/17 05:29:51;;;;;;;4.67;2.93;;;15.20;90.20;;;;;;10328365;28;20262;-80
2022/04/17 05:34:54;;;;;;;3.67;2.77;;;15.40;89.40;;;;;;10326284;28;20692;-79
2022/04/17 05:39:56;;;;;;;7.47;4.63;;;15.50;88.80;;;;;;10302267;28;20245;-80
2022/04/17 05:44:59;;;;;;;4.17;3.03;;;13.70;76.00;;;;;;10300992;28;20237;-79
2022/04/17 05:50:01;;;;;;;4.53;3.70;;;10.60;66.50;;;;;;10325731;28;20248;-80
2022/04/17 05:55:11;;;;;;;4.60;4.07;;;11.10;97.20;;;;;;10326743;28;20680;-80
2022/04/17 06:00:16;;;;;;;5.53;3.37;;;12.20;78.20;;;;;;10308613;28;20244;-79
2022/04/17 06:05:19;;;;;;;5.10;3.13;;;10.70;95.10;;;;;;10308266;28;20310;-79
2022/04/17 06:10:21;;;;;;;5.83;4.37;;;10.30;99.90;;;;;;10327842;28;20736;-79
2022/04/17 06:15:24;;;;;;;5.67;4.03;;;10.90;88.10;;;;;;10299757;28;20699;-79
2022/04/17 06:20:26;;;;;;;6.50;3.10;;;10.60;72.80;;;;;;10317289;28;20216;-79
2022/04/17 06:25:29;;;;;;;7.93;3.13;;;7.60;72.90;;;;;;10326450;28;20313;-80
2022/04/17 06:30:31;;;;;;;3.43;2.57;;;7.50;76.00;;;;;;10320356;28;20613;-79
2022/04/17 06:35:34;;;;;;;4.53;2.93;;;10.40;99.90;;;;;;10321977;28;20317;-79
2022/04/17 06:40:37;;;;;;;2.83;2.50;;;12.30;99.90;;;;;;10313635;28;20256;-79
2022/04/17 06:45:40;;;;;;;3.67;2.63;;;13.50;99.90;;;;;;10311615;28;20307;-79
2022/04/17 06:50:44;;;;;;;3.87;2.33;;;11.50;62.00;;;;;;10311518;28;20244;-79
2022/04/17 06:55:48;;;;;;;3.83;2.90;;;11.00;99.90;;;;;;10330175;28;20677;-79
2022/04/17 07:00:50;;;;;;;3.07;2.17;;;12.70;99.90;;;;;;10323844;28;20622;-79
2022/04/17 07:05:53;;;;;;;3.93;2.90;;;12.40;69.20;;;;;;10314240;28;20661;-79
2022/04/17 07:10:55;;;;;;;3.50;2.60;;;12.80;86.00;;;;;;10315645;28;20252;-80
2022/04/17 07:15:58;;;;;;;2.37;2.13;;;12.80;98.70;;;;;;10292042;28;20330;-79
2022/04/17 07:21:00;;;;;;;3.87;2.23;;;11.30;87.10;;;;;;10302548;28;20248;-79
2022/04/17 07:26:03;;;;;;;4.33;1.93;;;10.20;79.00;;;;;;10333161;28;20252;-80
2022/04/17 07:31:06;;;;;;;3.53;2.53;;;10.10;68.00;;;;;;10317915;28;20246;-79
2022/04/17 07:36:09;;;;;;;3.87;1.97;;;10.70;99.90;;;;;;10284776;28;20330;-79
2022/04/17 07:41:12;;;;;;;5.40;2.03;;;9.30;65.00;;;;;;10313947;28;20237;-80
2022/04/17 07:46:15;;;;;;;2.83;2.30;;;11.10;84.30;;;;;;10328126;28;20248;-80
2022/04/17 07:51:17;;;;;;;3.17;1.57;;;12.70;95.00;;;;;;10302359;28;20701;-81
2022/04/17 07:56:20;;;;;;;3.37;1.83;;;11.30;76.20;;;;;;10330949;28;20302;-81
2022/04/17 08:01:22;;;;;;;2.70;2.23;;;11.20;65.90;;;;;;10296257;28;20322;-77
2022/04/17 08:06:25;;;;;;;3.87;3.20;;;11.70;99.90;;;;;;10303560;28;20817;-77
2022/04/17 08:11:29;;;;;;;2.40;2.20;;;14.10;94.50;;;;;;10289659;28;20685;-77
2022/04/17 08:16:32;;;;;;;2.87;2.57;;;14.50;91.80;;;;;;10339218;23;20272;-78
2022/04/17 08:21:34;;;;;;;1.63;1.30;;;14.50;92.10;;;;;;10272270;28;20244;-78
2022/04/17 08:26:37;;;;;;;2.80;1.40;;;11.40;57.00;;;;;;10290143;28;20232;-79
2022/04/17 08:31:39;;;;;;;2.13;1.30;;;10.60;55.30;;;;;;10322714;28;20301;-79
2022/04/17 08:36:42;;;;;;;3.53;1.67;;;12.30;58.60;;;;;;10321617;28;20292;-78
2022/04/17 08:41:47;;;;;;;3.17;2.67;;;12.30;67.50;;;;;;10327501;23;20270;-80
2022/04/17 08:46:50;;;;;;;1.37;1.10;;;13.40;94.20;;;;;;10256837;28;20238;-79
2022/04/17 08:51:55;;;;;;;3.43;1.43;;;12.60;59.10;;;;;;10249520;28;20293;-80
2022/04/17 08:56:58;;;;;;;2.97;2.33;;;13.70;75.60;;;;;;10286533;28;20257;-80
2022/04/17 09:02:10;;;;;;;2.97;2.37;;;13.40;86.00;;;;;;10317609;23;20212;-79
2022/04/17 09:07:13;;;;;;;2.13;1.57;;;13.40;86.00;;;;;;10275832;28;20246;-79
2022/04/17 09:12:20;;;;;;;2.33;2.00;;;12.60;58.80;;;;;;10271896;28;20237;-80
2022/04/17 09:17:34;;;;;;;2.93;2.60;;;13.80;90.80;;;;;;10287705;28;20253;-78
2022/04/17 09:22:47;;;;;;;2.17;1.77;;;14.60;73.00;;;;;;10230743;28;20237;-78
2022/04/17 09:28:01;;;;;;;2.33;1.53;;;14.90;82.60;;;;;;10231195;29;20683;-78
2022/04/17 09:33:13;;;;;;;4.03;2.40;;;14.20;53.80;;;;;;10255844;28;20241;-79
2022/04/17 09:38:15;;;;;;;3.60;2.57;;;13.20;86.70;;;;;;10263005;28;20313;-79
2022/04/17 09:43:18;;;;;;;2.33;1.80;;;14.60;87.60;;;;;;10229698;29;20647;-78
2022/04/17 09:48:21;;;;;;;4.47;1.60;;;15.40;82.80;;;;;;10247418;28;20675;-78
2022/04/17 09:53:30;;;;;;;3.97;1.90;;;14.00;70.30;;;;;;10256363;28;20245;-78
2022/04/17 09:58:50;;;;;;;2.20;1.30;;;14.90;67.10;;;;;;10287457;28;20706;-78
2022/04/17 10:03:54;;;;;;;2.43;2.13;;;12.00;76.00;;;;;;10265376;28;20635;-77
2022/04/17 10:08:58;;;;;;;3.70;2.17;;;14.20;88.80;;;;;;10181683;29;20242;-76
2022/04/17 10:14:02;;;;;;;3.53;2.27;;;14.90;85.00;;;;;;10227723;29;20246;-79
2022/04/17 10:19:10;;;;;;;2.03;1.63;;;15.30;83.80;;;;;;10197725;29;20683;-78
2022/04/17 10:24:15;;;;;;;2.30;1.70;;;15.30;81.90;;;;;;10268155;23;20289;-78
2022/04/17 10:29:41;;;;;;;2.60;1.70;;;15.50;79.60;;;;;;10289779;28;20233;-79
2022/04/17 10:34:55;;;;;;;3.17;2.47;;;15.20;70.80;;;;;;10272844;28;20253;-79
2022/04/17 10:39:59;;;;;;;6.33;2.77;;;13.80;73.50;;;;;;10259287;28;20237;-83
2022/04/17 10:45:04;;;;;;;2.40;1.70;;;14.60;67.00;;;;;;10292362;23;20260;-80
2022/04/17 10:50:08;;;;;;;2.13;1.00;;;14.90;58.40;;;;;;10339292;23;20272;-90
2022/04/17 10:55:14;;;;;;;2.20;0.93;;;14.90;52.20;;;;;;10332841;28;20252;-90
2022/04/17 11:00:28;;;;;;;3.53;1.43;;;13.20;56.20;;;;;;10316282;28;20232;-90
2022/04/17 11:11:12;;;;;;;1.90;1.20;;;14.60;57.30;;;;;;10335479;28;20225;-90
2022/04/17 11:16:15;;;;;;;1.60;0.93;;;13.60;55.40;;;;;;10335250;28;20261;-90
2022/04/17 11:21:18;;;;;;;1.80;0.80;;;13.30;58.00;;;;;;10314282;28;20217;-89
2022/04/17 11:26:52;;;;;;;3.10;0.77;;;14.00;57.40;;;;;;10331290;28;20236;-90
2022/04/17 11:31:55;;;;;;;1.33;0.90;;;14.20;54.20;;;;;;10330557;28;20244;-90
2022/04/17 11:37:02;;;;;;;2.80;1.10;;;13.80;54.00;;;;;;10330868;28;20264;-90
2022/04/17 11:42:06;;;;;;;2.23;1.20;;;13.10;57.50;;;;;;10314963;28;20909;-90
2022/04/17 11:47:13;;;;;;;1.20;1.00;;;13.80;60.60;;;;;;10332160;28;20237;-89
2022/04/17 11:52:20;;;;;;;1.40;0.73;;;12.40;53.50;;;;;;10331490;28;20318;-90
2022/04/17 11:57:22;;;;;;;2.37;1.20;;;12.60;53.50;;;;;;10314494;28;20294;-90
2022/04/17 12:02:27;;;;;;;1.37;1.00;;;13.20;67.70;;;;;;10329933;28;20240;-90
2022/04/17 12:07:29;;;;;;;1.63;1.00;;;12.80;54.60;;;;;;10331096;28;20248;-90
2022/04/17 12:12:40;;;;;;;3.77;1.10;;;13.40;56.40;;;;;;10329073;28;20262;-90
2022/04/17 12:17:42;;;;;;;1.33;0.90;;;14.50;64.60;;;;;;10312903;28;20658;-91
2022/04/17 12:22:45;;;;;;;1.80;1.53;;;14.70;65.10;;;;;;10330508;28;20244;-90
2022/04/17 12:27:55;;;;;;;3.47;1.10;;;13.70;61.30;;;;;;10330427;28;20237;-91
2022/04/17 12:33:00;;;;;;;2.07;1.20;;;14.20;54.80;;;;;;10312086;28;20244;-91
2022/04/17 12:38:04;;;;;;;3.07;1.23;;;14.60;60.60;;;;;;10311875;28;20302;-91
2022/04/17 12:43:21;;;;;;;4.07;1.23;;;14.70;63.90;;;;;;10329018;28;20256;-90
2022/04/17 12:48:31;;;;;;;1.67;1.00;;;14.60;58.50;;;;;;10313316;28;20248;-90
2022/04/17 12:53:38;;;;;;;1.80;1.10;;;13.70;59.50;;;;;;10312058;28;20248;-90
2022/04/17 12:58:55;;;;;;;2.90;1.63;;;12.90;62.10;;;;;;10312318;28;20279;-90
2022/04/17 13:04:20;;;;;;;1.93;1.23;;;13.90;61.40;;;;;;10312261;28;20614;-90
2022/04/17 13:09:27;;;;;;;1.33;1.13;;;13.60;55.00;;;;;;10328952;28;20268;-90
2022/04/17 13:14:30;;;;;;;1.23;1.10;;;13.40;62.10;;;;;;10329071;28;20271;-90
2022/04/17 13:19:32;;;;;;;1.47;1.10;;;13.70;66.10;;;;;;10295347;28;20728;-91
2022/04/17 13:24:34;;;;;;;2.97;1.00;;;13.70;52.70;;;;;;10328962;28;20263;-90
2022/04/17 13:29:37;;;;;;;3.13;1.57;;;13.40;53.60;;;;;;10311232;28;20873;-90
2022/04/17 13:34:42;;;;;;;2.30;1.47;;;13.20;56.40;;;;;;10309595;28;20299;-86
2022/04/17 13:39:44;;;;;;;2.10;1.50;;;13.10;56.00;;;;;;10281380;28;20272;-85
2022/04/17 13:44:47;;;;;;;2.60;1.30;;;13.70;54.00;;;;;;10315936;28;20235;-80
2022/04/17 13:49:49;;;;;;;2.53;1.60;;;14.00;53.40;;;;;;10317591;28;20328;-80
2022/04/17 13:54:53;;;;;;;1.63;1.00;;;14.00;55.70;;;;;;10287119;28;20237;-80
2022/04/17 13:59:56;;;;;;;1.73;1.33;;;13.70;55.60;;;;;;10273782;28;20329;-80
2022/04/17 14:04:58;;;;;;;1.47;0.90;;;13.80;52.20;;;;;;10277862;28;20241;-80
2022/04/17 14:10:01;;;;;;;2.17;1.47;;;13.70;58.80;;;;;;10266890;28;20253;-80
2022/04/17 14:15:05;;;;;;;3.33;1.30;;;13.50;53.30;;;;;;10269660;28;20274;-80
2022/04/17 14:20:08;;;;;;;2.93;1.53;;;13.50;53.90;;;;;;10286387;28;20261;-81
2022/04/17 14:25:18;;;;;;;1.80;1.20;;;13.60;57.60;;;;;;10267036;28;20249;-81
2022/04/17 14:30:26;;;;;;;1.93;1.00;;;13.90;53.70;;;;;;10254139;28;20689;-81
2022/04/17 14:35:28;;;;;;;1.30;1.20;;;14.40;64.60;;;;;;10277986;28;20250;-81
2022/04/17 14:40:30;;;;;;;2.93;1.43;;;14.30;54.00;;;;;;10283736;28;20221;-80
2022/04/17 14:45:38;;;;;;;1.87;1.23;;;14.70;57.00;;;;;;10268081;28;20675;-81
2022/04/17 14:50:42;;;;;;;2.23;1.23;;;14.70;59.20;;;;;;10248169;28;20276;-81
2022/04/17 14:55:48;;;;;;;1.93;1.00;;;16.20;52.50;;;;;;9913788;28;9999881;-81
2022/04/17 15:00:51;;;;;;;1.60;0.80;;;14.20;55.40;;;;;;10282944;28;20241;-80
2022/04/17 15:05:56;;;;;;;4.53;1.47;;;15.60;65.00;;;;;;10289873;28;20241;-81
2022/04/17 15:10:59;;;;;;;1.67;1.20;;;14.80;54.20;;;;;;10289386;28;20712;-81
2022/04/17 15:16:01;;;;;;;3.50;1.37;;;14.90;56.60;;;;;;10289485;28;20262;-81
2022/04/17 15:21:04;;;;;;;1.80;1.30;;;14.00;53.40;;;;;;10270890;28;20273;-81
2022/04/17 15:26:07;;;;;;;2.27;1.40;;;15.30;63.30;;;;;;10287223;28;20311;-81
2022/04/17 15:31:09;;;;;;;1.60;1.00;;;15.90;56.50;;;;;;10289029;28;20652;-82
2022/04/17 15:36:12;;;;;;;2.27;1.37;;;15.00;58.30;;;;;;10250536;28;20280;-81
2022/04/17 15:41:15;;;;;;;1.70;1.30;;;15.40;62.60;;;;;;10238323;28;20292;-81
2022/04/17 15:51:39;;;;;;;1.60;1.07;;;15.50;56.80;;;;;;10258162;28;20726;-81
2022/04/17 15:56:43;;;;;;;1.10;0.93;;;14.40;54.90;;;;;;10259188;28;20265;-81
2022/04/17 16:01:45;;;;;;;1.57;1.37;;;14.10;60.00;;;;;;10287191;28;20245;-81
2022/04/17 16:06:48;;;;;;;1.63;1.47;;;13.90;56.70;;;;;;10271029;28;20245;-81
2022/04/17 16:11:51;;;;;;;2.10;1.50;;;13.70;60.80;;;;;;10286465;28;20276;-81
2022/04/17 16:16:53;;;;;;;1.83;1.30;;;13.50;58.40;;;;;;10253507;28;20253;-81
2022/04/17 16:21:58;;;;;;;4.03;1.33;;;13.40;59.50;;;;;;10285698;28;20253;-81
2022/04/17 16:27:00;;;;;;;1.80;1.00;;;13.10;57.90;;;;;;10283325;28;20241;-81
2022/04/17 16:32:03;;;;;;;2.17;1.67;;;12.90;66.90;;;;;;10280141;28;20412;-81
2022/04/17 16:37:06;;;;;;;2.23;1.60;;;13.00;62.40;;;;;;10266900;28;20265;-81
2022/04/17 16:42:08;;;;;;;2.60;2.10;;;12.70;64.70;;;;;;10283942;28;20658;-81
2022/04/17 16:47:10;;;;;;;3.83;1.87;;;13.00;58.50;;;;;;10251238;28;20237;-80
2022/04/17 16:52:13;;;;;;;4.70;2.57;;;13.00;59.70;;;;;;10307881;28;20256;-80
2022/04/17 17:02:36;;;;;;;5.03;3.43;;;13.50;62.90;;;;;;10317730;28;20240;-80
2022/04/17 17:07:40;;;;;;;5.67;3.27;;;13.70;61.80;;;;;;10271882;28;20295;-80
2022/04/17 17:12:42;;;;;;;3.33;2.33;;;13.30;68.60;;;;;;10267632;28;20315;-80
2022/04/17 17:17:45;;;;;;;4.03;2.60;;;13.20;66.80;;;;;;10286159;28;20269;-80
2022/04/17 17:22:47;;;;;;;5.33;3.23;;;12.90;62.50;;;;;;10328353;28;20690;-81
2022/04/17 17:27:50;;;;;;;1.70;1.03;;;13.20;71.60;;;;;;10301698;28;20244;-80
2022/04/17 17:32:52;;;;;;;7.63;3.47;;;14.40;77.10;;;;;;10298159;28;20289;-80
2022/04/17 17:37:54;;;;;;;2.17;1.23;;;14.60;70.50;;;;;;10305340;28;20327;-80
2022/04/17 17:42:57;;;;;;;2.17;1.10;;;14.80;76.10;;;;;;10322033;28;20244;-81
2022/04/17 17:48:02;;;;;;;9.90;4.33;;;15.10;75.60;;;;;;10321122;28;20268;-80
2022/04/17 17:53:04;;;;;;;3.77;2.07;;;15.10;72.20;;;;;;10277173;28;20269;-81
2022/04/17 17:58:07;;;;;;;29.80;12.80;;;15.20;75.00;;;;;;10326286;28;20260;-81
2022/04/17 18:03:10;;;;;;;1.40;0.97;;;14.50;66.50;;;;;;10326829;28;20311;-81
2022/04/17 18:18:56;;;;;;;23.77;13.03;;;15.50;75.90;;;;;;10318678;28;20264;-81
2022/04/17 18:24:00;;;;;;;3.27;1.63;;;15.40;74.40;;;;;;10296689;28;20250;-81
2022/04/17 18:29:03;;;;;;;1.40;1.20;;;15.30;76.50;;;;;;10292277;28;20248;-80
2022/04/17 18:34:05;;;;;;;7.17;3.77;;;15.40;76.70;;;;;;10334934;28;20246;-80
2022/04/17 18:39:09;;;;;;;5.37;3.47;;;15.30;76.30;;;;;;10316480;28;20665;-80
2022/04/17 18:44:12;;;;;;;2.57;1.63;;;15.40;77.00;;;;;;10331812;28;20241;-80
2022/04/17 18:49:14;;;;;;;6.67;4.60;;;15.30;77.30;;;;;;10317769;28;20276;-81
2022/04/17 18:54:17;;;;;;;4.23;2.70;;;15.00;76.60;;;;;;10278754;28;20292;-80
2022/04/17 18:59:20;;;;;;;8.87;4.20;;;14.60;78.90;;;;;;10287934;28;20262;-80
2022/04/17 19:04:22;;;;;;;21.37;10.37;;;14.70;79.60;;;;;;10292783;28;20301;-80
2022/04/17 19:09:25;;;;;;;6.03;3.13;;;14.60;78.90;;;;;;10292490;28;20707;-80
2022/04/17 19:14:27;;;;;;;16.67;9.40;;;14.50;80.00;;;;;;10291973;28;20242;-80
2022/04/17 19:19:30;;;;;;;6.43;3.87;;;14.20;79.90;;;;;;10253354;28;20265;-80
2022/04/17 19:24:32;;;;;;;11.87;5.87;;;14.10;82.20;;;;;;10273242;28;20237;-81
2022/04/17 19:29:35;;;;;;;7.90;4.93;;;14.10;82.00;;;;;;10291100;28;20245;-80
2022/04/17 19:40:01;;;;;;;11.33;6.90;;;14.20;81.20;;;;;;10288284;28;20822;-81
2022/04/17 19:45:10;;;;;;;11.77;6.60;;;14.10;82.50;;;;;;10279292;28;20639;-81
2022/04/17 19:50:16;;;;;;;6.67;3.83;;;14.00;82.60;;;;;;10285057;28;20291;-81
2022/04/17 19:55:19;;;;;;;7.23;3.43;;;13.90;83.60;;;;;;10313667;28;20672;-81
2022/04/17 20:00:22;;;;;;;7.03;4.03;;;14.80;81.10;;;;;;10330815;28;20269;-81
2022/04/17 20:05:25;;;;;;;6.80;4.10;;;13.30;71.60;;;;;;10331025;28;20283;-81
2022/04/17 20:10:28;;;;;;;33.97;19.37;;;14.20;81.60;;;;;;10296996;28;20254;-81
2022/04/17 20:15:30;;;;;;;23.00;16.83;;;13.70;70.40;;;;;;10302141;28;20241;-81
2022/04/17 20:20:33;;;;;;;9.57;5.87;;;12.60;78.40;;;;;;10327155;28;20262;-80
2022/04/17 20:25:35;;;;;;;9.20;5.40;;;12.60;85.20;;;;;;10328122;28;20743;-81
2022/04/17 20:30:38;;;;;;;5.00;3.30;;;12.40;87.40;;;;;;10327536;28;20641;-81
2022/04/17 20:35:40;;;;;;;8.77;5.73;;;13.50;87.40;;;;;;10320704;28;20248;-81
2022/04/17 20:40:43;;;;;;;5.10;4.07;;;14.10;82.70;;;;;;10299576;28;20260;-81
2022/04/17 20:51:07;;;;;;;5.77;4.07;;;14.30;77.70;;;;;;10288795;28;20269;-80
2022/04/17 20:56:10;;;;;;;5.97;4.03;;;15.20;79.90;;;;;;10287460;28;20314;-80
2022/04/17 21:01:13;;;;;;;4.63;3.23;;;15.40;77.10;;;;;;10281288;28;20316;-80
2022/04/17 21:06:16;;;;;;;4.63;3.40;;;15.40;78.60;;;;;;10242470;28;20722;-80
2022/04/17 21:11:18;;;;;;;8.00;5.00;;;15.10;78.70;;;;;;10255788;28;20637;-81
2022/04/17 21:16:21;;;;;;;3.77;3.27;;;13.60;66.70;;;;;;10284641;28;20296;-80
2022/04/17 21:21:23;;;;;;;5.27;3.07;;;13.90;82.70;;;;;;10288520;28;20797;-80
2022/04/17 21:26:26;;;;;;;4.73;3.03;;;14.20;80.20;;;;;;10265238;28;21088;-81
2022/04/17 21:31:29;;;;;;;4.80;3.20;;;15.00;79.80;;;;;;10267659;28;20248;-81
2022/04/17 21:36:31;;;;;;;4.63;3.20;;;15.00;76.60;;;;;;10272159;28;20619;-80
2022/04/17 21:41:34;;;;;;;7.47;6.13;;;14.40;78.30;;;;;;10230313;29;20747;-80
2022/04/17 21:46:36;;;;;;;15.10;12.93;;;13.10;70.40;;;;;;10260013;28;20296;-80
2022/04/17 21:51:40;;;;;;;6.20;5.00;;;12.10;77.40;;;;;;10247569;28;20301;-80
2022/04/17 21:56:43;;;;;;;5.00;3.27;;;12.70;83.00;;;;;;10250941;28;20834;-81
2022/04/17 22:07:07;;;;;;;4.53;2.63;;;12.80;83.20;;;;;;10288626;28;20377;-80
2022/04/17 22:12:11;;;;;;;3.47;2.30;;;13.10;74.40;;;;;;10261045;28;20679;-80
2022/04/17 22:17:13;;;;;;;3.50;2.50;;;13.10;75.00;;;;;;10289370;28;20653;-81
2022/04/17 22:22:16;;;;;;;4.03;2.67;;;13.40;84.70;;;;;;10254235;28;20261;-81
2022/04/17 22:27:20;;;;;;;4.73;3.23;;;13.40;73.50;;;;;;10294321;28;20288;-80
2022/04/17 22:32:22;;;;;;;3.50;2.90;;;13.10;84.90;;;;;;10264779;28;20237;-80
2022/04/17 22:37:25;;;;;;;4.43;3.63;;;13.50;83.20;;;;;;10272884;28;20247;-81
2022/04/17 22:42:27;;;;;;;3.23;2.67;;;12.90;85.50;;;;;;10267589;28;20239;-80
2022/04/17 22:47:31;;;;;;;4.73;2.50;;;14.10;82.90;;;;;;10269957;28;20718;-80
2022/04/17 22:52:34;;;;;;;3.30;2.73;;;14.60;80.50;;;;;;10285751;28;20725;-80
2022/04/17 22:57:37;;;;;;;2.90;2.60;;;12.60;81.70;;;;;;10293771;28;20646;-80
2022/04/17 23:02:40;;;;;;;3.90;2.77;;;13.50;79.80;;;;;;10274893;28;20248;-80
2022/04/17 23:07:42;;;;;;;5.30;2.50;;;13.80;81.00;;;;;;10325503;28;20668;-80
2022/04/17 23:12:45;;;;;;;3.97;2.60;;;14.00;74.30;;;;;;10324052;28;20300;-80
2022/04/17 23:17:47;;;;;;;3.50;2.70;;;13.10;78.40;;;;;;10314780;28;20714;-80
2022/04/17 23:22:50;;;;;;;5.30;3.47;;;13.70;78.80;;;;;;10307089;28;20735;-81
2022/04/17 23:27:53;;;;;;;2.93;2.23;;;13.70;74.40;;;;;;10330419;28;20264;-81
2022/04/17 23:32:56;;;;;;;4.20;3.00;;;12.60;63.80;;;;;;10332027;28;20240;-81
2022/04/17 23:37:59;;;;;;;3.27;2.47;;;11.80;79.40;;;;;;10329322;28;20303;-81
2022/04/17 23:43:01;;;;;;;3.67;2.67;;;11.80;75.90;;;;;;10331280;28;20268;-81
2022/04/17 23:48:04;;;;;;;5.30;2.97;;;10.80;88.00;;;;;;10331362;28;20240;-81
2022/04/17 23:53:07;;;;;;;3.77;2.83;;;11.30;74.20;;;;;;10314053;28;20303;-83
2022/04/17 23:58:09;;;;;;;4.60;2.87;;;12.30;83.10;;;;;;10301552;28;20261;-81
